Time;durP1;ratioP1;P1;durP2;ratioP2;P2;SDS_P1;SDS_P2;PMS_P1;PMS_P2;Temp;Humidity;BMP_temperature;BMP_pressure;BME280_temperature;BME280_humidity;BME280_pressure;Samples;Min_cycle;Max_cycle;Signal;HPM_P1;HPM_P2
2023/12/08 00:00:18;;;;;;;50.63;37.08;;;5.60;99.90;;;;;;5035227;28;20051;-67
2023/12/08 00:02:44;;;;;;;61.08;44.05;;;5.60;99.90;;;;;;5035027;28;20026;-65
2023/12/08 00:05:09;;;;;;;48.22;35.53;;;5.60;99.90;;;;;;5035280;28;20026;-64
2023/12/08 00:07:35;;;;;;;45.80;35.60;;;5.60;99.90;;;;;;5035235;28;20053;-63
2023/12/08 00:10:02;;;;;;;49.55;36.97;;;5.60;99.90;;;;;;5034853;28;20063;-63
2023/12/08 00:12:28;;;;;;;46.75;35.90;;;5.60;99.90;;;;;;5035135;28;20033;-67
2023/12/08 00:14:54;;;;;;;48.42;36.60;;;5.60;99.90;;;;;;5035089;28;20032;-64
2023/12/08 00:17:20;;;;;;;60.17;43.55;;;5.70;99.90;;;;;;5034771;28;20377;-60
2023/12/08 00:19:45;;;;;;;45.08;34.92;;;5.60;99.90;;;;;;5034996;28;20083;-61
2023/12/08 00:22:11;;;;;;;44.75;33.70;;;5.50;99.90;;;;;;5034851;28;20025;-60
2023/12/08 00:24:37;;;;;;;39.40;31.50;;;5.50;99.90;;;;;;5034881;28;20034;-60
2023/12/08 00:27:03;;;;;;;41.53;31.08;;;5.40;99.90;;;;;;5034716;28;20025;-62
2023/12/08 00:29:29;;;;;;;41.40;31.38;;;5.40;99.90;;;;;;5034750;28;20029;-60
2023/12/08 00:31:55;;;;;;;43.22;32.28;;;5.30;99.90;;;;;;5034593;28;20026;-64
2023/12/08 00:34:20;;;;;;;61.13;42.83;;;5.20;99.90;;;;;;5034760;28;20067;-65
2023/12/08 00:36:46;;;;;;;63.17;45.03;;;5.20;99.90;;;;;;5034658;28;20422;-68
2023/12/08 00:39:12;;;;;;;47.65;36.85;;;5.10;99.90;;;;;;5034558;28;20025;-67
2023/12/08 00:41:37;;;;;;;40.10;31.58;;;4.90;99.90;;;;;;5034488;28;20504;-65
2023/12/08 00:44:04;;;;;;;35.92;28.15;;;4.60;99.90;;;;;;5034609;28;20018;-66
2023/12/08 00:46:30;;;;;;;32.60;26.10;;;4.40;99.90;;;;;;5034314;28;20109;-63
2023/12/08 00:48:55;;;;;;;35.20;26.58;;;4.20;99.90;;;;;;5034344;28;20017;-63
2023/12/08 00:51:21;;;;;;;34.88;27.02;;;4.10;99.90;;;;;;5034674;28;20037;-66
2023/12/08 00:53:47;;;;;;;37.33;28.17;;;4.00;99.90;;;;;;5034189;28;20021;-64
2023/12/08 00:56:12;;;;;;;32.78;24.88;;;3.90;99.90;;;;;;5034201;28;20143;-65
2023/12/08 00:58:38;;;;;;;30.35;22.50;;;3.80;99.90;;;;;;5034151;28;20025;-57
2023/12/08 01:01:04;;;;;;;31.92;22.35;;;3.80;99.90;;;;;;5033937;28;20405;-61
2023/12/08 01:03:30;;;;;;;32.75;23.95;;;3.90;99.90;;;;;;5034148;28;20432;-58
2023/12/08 01:05:56;;;;;;;34.78;24.23;;;3.90;99.90;;;;;;5034032;28;20091;-64
2023/12/08 01:08:22;;;;;;;36.10;27.95;;;3.90;99.90;;;;;;5034071;28;20400;-60
2023/12/08 01:10:48;;;;;;;35.13;26.33;;;4.00;99.90;;;;;;5033220;28;20037;-64
2023/12/08 01:13:13;;;;;;;34.55;25.55;;;4.00;99.90;;;;;;5033878;28;20112;-64
2023/12/08 01:15:39;;;;;;;30.05;24.13;;;3.90;99.90;;;;;;5034246;28;20032;-57
2023/12/08 01:18:05;;;;;;;27.98;21.63;;;3.70;99.90;;;;;;5032821;28;20033;-60
2023/12/08 01:20:31;;;;;;;25.27;19.05;;;3.70;99.90;;;;;;5033699;28;20464;-64
2023/12/08 01:22:57;;;;;;;32.55;23.60;;;3.80;99.90;;;;;;5033955;28;20491;-65
2023/12/08 01:25:22;;;;;;;29.52;21.42;;;3.80;99.90;;;;;;5033764;28;20056;-65
2023/12/08 01:27:48;;;;;;;27.80;20.63;;;3.70;99.90;;;;;;5033719;28;20045;-55
2023/12/08 01:30:14;;;;;;;32.38;21.67;;;3.60;99.90;;;;;;5033463;28;20022;-68
2023/12/08 01:32:39;;;;;;;26.15;19.52;;;3.60;99.90;;;;;;5033689;28;20072;-71
2023/12/08 01:35:05;;;;;;;24.95;18.23;;;3.50;99.90;;;;;;5033600;28;20025;-62
2023/12/08 01:37:31;;;;;;;22.75;17.55;;;3.50;99.90;;;;;;5033555;28;20052;-65
2023/12/08 01:39:56;;;;;;;27.90;19.67;;;3.40;99.90;;;;;;5033441;28;20096;-67
2023/12/08 01:42:22;;;;;;;26.27;19.60;;;3.40;99.90;;;;;;5033617;28;20036;-57
2023/12/08 01:44:48;;;;;;;25.65;18.95;;;3.30;99.90;;;;;;5033168;28;20441;-58
2023/12/08 01:47:14;;;;;;;32.33;24.27;;;3.20;99.90;;;;;;5033458;28;20100;-63
2023/12/08 01:49:40;;;;;;;28.42;20.85;;;3.20;99.90;;;;;;5033383;28;20056;-62
2023/12/08 01:52:07;;;;;;;43.22;28.88;;;3.10;99.90;;;;;;5033236;28;20040;-57
2023/12/08 01:54:34;;;;;;;32.30;22.10;;;3.10;99.90;;;;;;5031984;28;20392;-65
2023/12/08 01:57:01;;;;;;;37.80;26.05;;;3.10;99.90;;;;;;5033343;28;20155;-62
2023/12/08 01:59:28;;;;;;;28.45;20.77;;;3.20;99.90;;;;;;5032979;28;20070;-63
2023/12/08 02:01:54;;;;;;;29.33;21.65;;;3.20;99.90;;;;;;5033264;28;20092;-64
2023/12/08 02:04:20;;;;;;;41.60;28.08;;;3.20;99.90;;;;;;5033244;28;20072;-69
2023/12/08 02:06:46;;;;;;;46.90;31.50;;;3.30;99.90;;;;;;5033223;28;20036;-60
2023/12/08 02:09:12;;;;;;;48.10;33.47;;;3.20;99.90;;;;;;5031734;28;20395;-64
2023/12/08 02:11:39;;;;;;;47.22;31.60;;;3.20;99.90;;;;;;5033084;28;20018;-65
2023/12/08 02:14:05;;;;;;;49.78;32.15;;;3.10;99.90;;;;;;5032949;28;20025;-64
2023/12/08 02:16:53;;;;;;;39.17;26.73;;;3.00;99.90;;;;;;5032943;28;20028;-63
2023/12/08 02:19:19;;;;;;;38.47;25.15;;;3.00;99.90;;;;;;5032948;28;20041;-66
2023/12/08 02:21:46;;;;;;;34.28;23.63;;;3.00;99.90;;;;;;5032949;28;20053;-69
2023/12/08 02:24:11;;;;;;;27.58;20.27;;;3.00;99.90;;;;;;5036910;28;20022;-66
2023/12/08 02:26:37;;;;;;;27.40;19.60;;;3.00;99.90;;;;;;5037108;28;20558;-62
2023/12/08 02:29:08;;;;;;;33.65;22.58;;;3.10;99.90;;;;;;5036790;28;20025;-63
2023/12/08 02:31:44;;;;;;;25.30;17.55;;;3.20;99.90;;;;;;5035772;28;20491;-62
2023/12/08 02:34:12;;;;;;;23.05;16.92;;;3.20;99.90;;;;;;5036868;28;20071;-65
2023/12/08 02:36:38;;;;;;;22.52;16.40;;;3.20;99.90;;;;;;5036911;28;20071;-60
2023/12/08 02:39:06;;;;;;;23.45;17.35;;;3.20;99.90;;;;;;5036943;28;20100;-63
2023/12/08 02:41:32;;;;;;;23.70;16.67;;;3.30;99.90;;;;;;5036728;28;20017;-65
2023/12/08 02:43:58;;;;;;;26.98;19.25;;;3.30;99.90;;;;;;5036623;28;20029;-71
2023/12/08 02:46:23;;;;;;;22.35;15.45;;;3.30;99.90;;;;;;5037107;28;20537;-62
2023/12/08 02:48:49;;;;;;;18.35;14.05;;;3.20;99.90;;;;;;5036699;28;20026;-64
2023/12/08 02:51:15;;;;;;;19.65;14.82;;;3.20;99.90;;;;;;5036533;28;20076;-58
2023/12/08 02:53:40;;;;;;;21.98;16.20;;;3.10;99.90;;;;;;5036526;28;20025;-65
2023/12/08 02:56:06;;;;;;;18.48;13.27;;;3.20;99.90;;;;;;5036474;28;20075;-64
2023/12/08 02:58:32;;;;;;;17.63;12.68;;;3.10;99.90;;;;;;5036296;28;20432;-61
2023/12/08 03:00:58;;;;;;;16.48;11.75;;;3.10;99.90;;;;;;5036550;28;20025;-67
2023/12/08 03:03:23;;;;;;;17.10;12.38;;;3.10;99.90;;;;;;5036513;28;20018;-61
2023/12/08 03:05:50;;;;;;;17.15;11.73;;;3.10;99.90;;;;;;5036303;28;20038;-60
2023/12/08 03:08:16;;;;;;;16.33;12.25;;;3.10;99.90;;;;;;5036372;28;20052;-64
2023/12/08 03:10:42;;;;;;;15.25;12.07;;;3.10;99.90;;;;;;5035915;28;20049;-62
2023/12/08 03:13:07;;;;;;;20.65;13.93;;;3.10;99.90;;;;;;5036119;28;20044;-63
2023/12/08 03:15:33;;;;;;;17.98;13.02;;;3.10;99.90;;;;;;5036426;28;20108;-70
2023/12/08 03:17:58;;;;;;;21.02;14.38;;;3.10;99.90;;;;;;5036443;28;20033;-62
2023/12/08 03:20:24;;;;;;;21.20;16.65;;;3.10;99.90;;;;;;5036060;28;20096;-67
2023/12/08 03:22:50;;;;;;;20.25;14.52;;;3.10;99.90;;;;;;5035992;28;20060;-65
2023/12/08 03:25:16;;;;;;;28.10;18.75;;;3.00;99.90;;;;;;5036013;28;20056;-64
2023/12/08 03:27:41;;;;;;;21.45;15.35;;;3.00;99.90;;;;;;5036058;28;20096;-67
2023/12/08 03:30:08;;;;;;;20.38;14.50;;;3.00;99.90;;;;;;5035902;28;20026;-63
2023/12/08 03:32:33;;;;;;;27.92;18.88;;;2.90;99.90;;;;;;5035882;28;20076;-60
2023/12/08 03:34:59;;;;;;;22.20;14.82;;;2.90;99.90;;;;;;5035241;28;20033;-67
2023/12/08 03:37:25;;;;;;;20.15;14.18;;;2.90;99.90;;;;;;5035645;28;20063;-59
2023/12/08 03:39:51;;;;;;;23.52;15.70;;;2.90;99.90;;;;;;5035582;28;20017;-70
2023/12/08 03:42:16;;;;;;;19.98;13.20;;;2.80;99.90;;;;;;5035707;28;20136;-63
2023/12/08 03:44:42;;;;;;;15.00;12.07;;;2.80;99.90;;;;;;5035551;28;20071;-67
2023/12/08 03:47:08;;;;;;;16.23;12.20;;;2.80;99.90;;;;;;5035646;28;20105;-67
2023/12/08 03:49:33;;;;;;;20.98;15.60;;;2.80;99.90;;;;;;5035597;28;20025;-66
2023/12/08 03:51:59;;;;;;;18.92;13.68;;;2.80;99.90;;;;;;5035551;28;20468;-64
2023/12/08 03:54:25;;;;;;;13.98;11.02;;;2.70;99.90;;;;;;5035127;28;20059;-62
2023/12/08 03:56:50;;;;;;;14.45;11.07;;;2.70;99.90;;;;;;5035382;28;20029;-63
2023/12/08 03:59:16;;;;;;;16.30;11.15;;;2.70;99.90;;;;;;5035362;28;20112;-59
2023/12/08 04:01:42;;;;;;;12.07;9.48;;;2.60;99.90;;;;;;5035249;28;20022;-62
2023/12/08 04:04:10;;;;;;;17.50;12.68;;;2.60;99.90;;;;;;5035289;28;20025;-61
2023/12/08 04:06:36;;;;;;;15.10;11.23;;;2.60;99.90;;;;;;5035213;28;20033;-63
2023/12/08 04:09:02;;;;;;;12.35;9.15;;;2.60;99.90;;;;;;5034965;28;20025;-58
2023/12/08 04:11:28;;;;;;;15.45;10.73;;;2.50;99.90;;;;;;5034982;28;20064;-60
2023/12/08 04:13:53;;;;;;;12.45;9.55;;;2.60;99.90;;;;;;5035264;28;20369;-63
2023/12/08 04:16:19;;;;;;;17.23;13.27;;;2.60;99.90;;;;;;5034877;28;20024;-68
2023/12/08 04:18:45;;;;;;;17.13;10.82;;;2.60;99.90;;;;;;5035148;28;20033;-63
2023/12/08 04:21:19;;;;;;;20.58;14.43;;;2.60;99.90;;;;;;5035039;28;20031;-66
2023/12/08 04:23:45;;;;;;;14.35;11.27;;;2.60;99.90;;;;;;5034718;28;20021;-61
2023/12/08 04:26:11;;;;;;;24.40;17.80;;;2.50;99.90;;;;;;5034933;28;20029;-60
2023/12/08 04:28:38;;;;;;;15.38;11.68;;;2.50;99.90;;;;;;5034857;28;20021;-71
2023/12/08 04:31:04;;;;;;;14.23;11.48;;;2.50;99.90;;;;;;5034670;28;20025;-62
2023/12/08 04:33:30;;;;;;;12.75;10.65;;;2.50;99.90;;;;;;5034874;28;20044;-60
2023/12/08 04:35:56;;;;;;;15.45;11.60;;;2.50;99.90;;;;;;5034636;28;20068;-63
2023/12/08 04:38:21;;;;;;;13.43;9.82;;;2.40;99.90;;;;;;5034343;28;20116;-65
2023/12/08 04:40:47;;;;;;;12.82;10.65;;;2.40;99.90;;;;;;5034573;28;20025;-64
2023/12/08 07:53:40;;;;;;;37.83;26.63;;;9.50;72.50;;;;;;5089600;27;20374;-64
2023/12/08 07:56:07;;;;;;;37.33;27.17;;;10.70;59.80;;;;;;5088309;28;20020;-61
2023/12/08 07:58:33;;;;;;;40.40;29.90;;;11.40;55.00;;;;;;5089580;28;20412;-65
2023/12/08 08:00:58;;;;;;;38.53;29.85;;;12.30;51.30;;;;;;5089929;28;20070;-64
2023/12/08 08:03:24;;;;;;;34.65;27.65;;;13.10;47.10;;;;;;5090581;28;20032;-66
2023/12/08 08:05:50;;;;;;;35.22;27.20;;;13.70;46.60;;;;;;5090308;28;20066;-66
2023/12/08 08:08:15;;;;;;;36.17;27.38;;;14.40;44.80;;;;;;5090940;28;20021;-64
2023/12/08 08:10:42;;;;;;;34.13;28.42;;;15.00;43.10;;;;;;5089369;28;20052;-68
2023/12/08 08:13:08;;;;;;;35.40;27.90;;;15.70;41.20;;;;;;5090376;28;20064;-67
2023/12/08 08:15:33;;;;;;;32.38;26.55;;;16.30;40.00;;;;;;5090599;28;20051;-63
2023/12/08 08:17:59;;;;;;;33.53;27.73;;;16.70;39.60;;;;;;5090040;28;20520;-62
2023/12/08 08:20:25;;;;;;;32.47;27.95;;;17.00;38.50;;;;;;5090344;28;20017;-65
2023/12/08 08:22:50;;;;;;;39.88;33.28;;;17.10;37.90;;;;;;5089479;28;20024;-65
2023/12/08 08:25:16;;;;;;;37.60;32.15;;;17.20;37.30;;;;;;5090500;28;20096;-63
2023/12/08 08:27:42;;;;;;;42.80;37.53;;;17.20;36.80;;;;;;5090261;28;20031;-71
2023/12/08 08:30:08;;;;;;;48.78;41.05;;;17.00;36.00;;;;;;5090143;28;20409;-65
2023/12/08 08:32:34;;;;;;;43.67;38.53;;;16.70;37.10;;;;;;5089337;28;20452;-68
2023/12/08 08:34:59;;;;;;;48.35;42.72;;;16.90;37.10;;;;;;5089869;28;20108;-64
2023/12/08 08:37:26;;;;;;;46.05;40.42;;;17.00;37.70;;;;;;5085464;28;20056;-62
2023/12/08 08:39:52;;;;;;;45.20;39.08;;;16.90;38.00;;;;;;5076976;28;20039;-64
2023/12/08 08:42:18;;;;;;;39.00;34.83;;;16.90;37.10;;;;;;5086145;28;20497;-63
2023/12/08 08:44:43;;;;;;;41.50;35.10;;;16.60;38.50;;;;;;5083563;28;20020;-63
2023/12/08 08:47:10;;;;;;;39.65;35.45;;;16.50;38.20;;;;;;5086040;28;20048;-62
2023/12/08 08:49:36;;;;;;;38.65;34.58;;;16.20;38.80;;;;;;5077719;28;20075;-65
2023/12/08 08:52:02;;;;;;;37.55;33.58;;;15.60;39.60;;;;;;5085572;28;20052;-65
2023/12/08 08:54:28;;;;;;;42.17;37.33;;;15.30;40.40;;;;;;5085138;28;20110;-67
2023/12/08 08:56:54;;;;;;;43.97;37.70;;;15.00;39.50;;;;;;5083990;28;20027;-66
2023/12/08 08:59:19;;;;;;;46.88;40.90;;;14.50;41.20;;;;;;5070101;28;20028;-65
2023/12/08 09:01:45;;;;;;;43.45;38.78;;;14.00;41.30;;;;;;5066774;28;20033;-66
2023/12/08 09:04:11;;;;;;;48.03;41.78;;;13.60;43.10;;;;;;5057673;28;20022;-67
2023/12/08 09:06:37;;;;;;;44.25;38.92;;;13.10;43.10;;;;;;5052585;28;20102;-63
2023/12/08 09:09:04;;;;;;;43.00;38.20;;;12.90;45.60;;;;;;5053873;28;20047;-68
2023/12/08 09:11:30;;;;;;;44.53;39.25;;;13.20;46.30;;;;;;5054420;28;20056;-63
2023/12/08 09:13:56;;;;;;;45.45;39.47;;;13.30;44.60;;;;;;5052259;28;20372;-62
2023/12/08 09:16:21;;;;;;;43.08;36.65;;;13.40;44.30;;;;;;5053269;28;20054;-62
2023/12/08 09:18:47;;;;;;;39.70;34.33;;;13.40;45.30;;;;;;5052160;28;20039;-63
2023/12/08 09:21:13;;;;;;;40.25;34.20;;;13.40;44.50;;;;;;5053708;28;20025;-64
2023/12/08 09:23:38;;;;;;;37.10;32.70;;;13.40;45.10;;;;;;5054002;28;20028;-64
2023/12/08 09:26:04;;;;;;;37.33;31.40;;;13.40;45.20;;;;;;5053203;28;20052;-65
2023/12/08 09:28:30;;;;;;;29.95;26.85;;;13.40;45.00;;;;;;5053348;28;20029;-63
2023/12/08 09:30:55;;;;;;;27.92;24.15;;;13.40;44.30;;;;;;5055147;28;20021;-64
2023/12/08 09:33:21;;;;;;;26.13;23.30;;;13.40;42.10;;;;;;5054095;28;20025;-67
2023/12/08 09:35:47;;;;;;;24.63;22.13;;;13.30;42.20;;;;;;5055175;28;20382;-64
2023/12/08 09:38:12;;;;;;;23.92;21.33;;;13.30;44.20;;;;;;5054865;28;20056;-63
2023/12/08 09:40:41;;;;;;;21.25;18.95;;;13.40;45.20;;;;;;5054077;28;20083;-63
2023/12/08 09:43:16;;;;;;;19.13;17.08;;;13.50;43.00;;;;;;5054571;28;20099;-64
2023/12/08 09:45:44;;;;;;;20.48;18.13;;;13.40;42.60;;;;;;5055272;28;20029;-64
2023/12/08 09:48:12;;;;;;;21.20;18.58;;;13.20;41.10;;;;;;5055189;28;20025;-71
2023/12/08 09:50:39;;;;;;;21.08;18.80;;;13.10;44.80;;;;;;5061129;28;20016;-63
2023/12/08 09:53:06;;;;;;;22.35;20.00;;;13.30;44.90;;;;;;5058823;28;20376;-63
2023/12/08 09:55:33;;;;;;;20.83;18.63;;;13.50;44.00;;;;;;5054319;28;20025;-64
2023/12/08 09:58:00;;;;;;;22.50;19.50;;;13.70;44.00;;;;;;5054775;28;20127;-66
2023/12/08 10:00:30;;;;;;;20.13;17.95;;;13.80;43.10;;;;;;5054746;28;20024;-65
2023/12/08 10:02:55;;;;;;;19.92;17.70;;;14.00;43.30;;;;;;5053832;28;20053;-67
2023/12/08 10:05:21;;;;;;;17.88;16.05;;;14.00;43.70;;;;;;5062407;28;20020;-66
2023/12/08 10:07:50;;;;;;;16.45;14.75;;;14.30;42.20;;;;;;5070822;28;20032;-68
2023/12/08 10:10:16;;;;;;;13.18;11.77;;;14.40;40.90;;;;;;5073292;28;20025;-67
2023/12/08 10:12:42;;;;;;;13.32;11.20;;;14.60;39.40;;;;;;5073042;28;20466;-68
2023/12/08 10:15:10;;;;;;;12.05;10.73;;;14.40;40.40;;;;;;5063739;28;20366;-69
2023/12/08 10:17:47;;;;;;;9.38;8.40;;;14.40;39.70;;;;;;5071601;28;20059;-66
2023/12/08 10:20:13;;;;;;;13.00;11.40;;;14.30;38.80;;;;;;5073807;28;20355;-65
2023/12/08 10:22:49;;;;;;;10.23;9.27;;;14.00;38.30;;;;;;5072780;28;20033;-72
2023/12/08 10:25:16;;;;;;;10.10;9.10;;;13.90;39.10;;;;;;5063904;28;20047;-62
2023/12/08 10:27:56;;;;;;;10.85;9.80;;;13.90;39.70;;;;;;5058215;28;20039;-63
2023/12/08 10:30:27;;;;;;;12.18;11.00;;;14.10;40.10;;;;;;5062576;28;20025;-64
2023/12/08 10:32:54;;;;;;;11.98;10.88;;;14.20;40.30;;;;;;5061808;28;20436;-65
2023/12/08 10:35:20;;;;;;;14.45;13.05;;;14.40;39.10;;;;;;5072915;28;20028;-65
2023/12/08 10:37:45;;;;;;;18.67;16.80;;;14.60;37.80;;;;;;5069400;28;20040;-64
2023/12/08 10:40:13;;;;;;;20.52;18.13;;;14.60;37.50;;;;;;5074129;28;20021;-63
2023/12/08 10:42:39;;;;;;;25.15;22.65;;;14.60;37.80;;;;;;5073015;28;20025;-64
2023/12/08 10:45:11;;;;;;;20.45;18.45;;;14.20;38.20;;;;;;5073075;28;20036;-62
2023/12/08 10:47:42;;;;;;;17.30;15.55;;;14.30;36.80;;;;;;5056401;28;20029;-64
2023/12/08 10:50:09;;;;;;;14.00;12.60;;;14.70;36.50;;;;;;5052332;28;20032;-66
2023/12/08 10:52:39;;;;;;;12.90;11.63;;;15.10;35.10;;;;;;5055651;28;20036;-64
2023/12/08 10:55:10;;;;;;;13.10;11.90;;;15.10;35.50;;;;;;5064188;28;20033;-65
2023/12/08 10:57:36;;;;;;;10.23;9.32;;;15.30;36.00;;;;;;5052046;28;20032;-63
2023/12/08 11:00:16;;;;;;;10.63;9.63;;;15.40;34.10;;;;;;5053260;28;20021;-64
2023/12/08 11:02:47;;;;;;;10.45;9.45;;;15.50;34.30;;;;;;5073661;28;20122;-65
2023/12/08 11:05:25;;;;;;;10.52;9.52;;;15.70;34.10;;;;;;5063892;28;20044;-64
2023/12/08 11:07:53;;;;;;;8.98;8.18;;;15.90;33.20;;;;;;5065051;28;20043;-64
2023/12/08 11:10:20;;;;;;;7.70;7.00;;;15.90;33.60;;;;;;5068481;28;20024;-65
2023/12/08 11:12:54;;;;;;;7.60;6.90;;;15.90;33.20;;;;;;5065857;28;20036;-64
2023/12/08 11:15:22;;;;;;;5.97;5.47;;;15.80;32.60;;;;;;5056896;28;20179;-67
2023/12/08 11:18:11;;;;;;;4.93;4.50;;;15.80;31.90;;;;;;5067691;28;20478;-61
2023/12/08 11:20:37;;;;;;;4.20;3.90;;;15.80;31.50;;;;;;5060590;28;20028;-61
2023/12/08 11:23:04;;;;;;;2.40;2.20;;;15.80;31.80;;;;;;5052783;28;20040;-61
2023/12/08 11:25:40;;;;;;;2.90;2.70;;;15.60;28.80;;;;;;5051213;28;20494;-62
2023/12/08 11:28:32;;;;;;;4.00;3.70;;;15.20;30.80;;;;;;5055274;28;20013;-64
2023/12/08 11:31:05;;;;;;;7.10;6.40;;;15.00;32.80;;;;;;5067971;28;20024;-63
2023/12/08 11:33:40;;;;;;;5.75;5.25;;;14.50;33.40;;;;;;5053593;28;20017;-63
2023/12/08 11:36:07;;;;;;;6.60;6.00;;;14.20;34.50;;;;;;5050039;28;20033;-63
2023/12/08 11:38:33;;;;;;;5.60;5.00;;;14.00;35.20;;;;;;5049316;28;20028;-64
2023/12/08 11:40:58;;;;;;;5.28;4.78;;;13.80;34.30;;;;;;5050717;28;20028;-61
2023/12/08 11:43:26;;;;;;;5.38;4.82;;;13.70;33.40;;;;;;5050355;28;20514;-65
2023/12/08 11:45:52;;;;;;;4.95;4.50;;;13.60;33.50;;;;;;5050788;28;20123;-63
2023/12/08 11:48:19;;;;;;;5.82;5.05;;;13.40;34.90;;;;;;5051568;28;20017;-65
2023/12/08 11:50:46;;;;;;;5.35;4.75;;;13.20;34.50;;;;;;5051859;28;20471;-65
2023/12/08 11:53:12;;;;;;;5.72;5.18;;;13.10;35.50;;;;;;5057486;28;20041;-62
2023/12/08 11:55:43;;;;;;;7.65;5.75;;;13.00;37.10;;;;;;5072367;28;20090;-64
2023/12/08 11:58:09;;;;;;;9.75;8.70;;;12.80;38.10;;;;;;5066633;28;20028;-62
2023/12/08 12:00:39;;;;;;;10.23;8.70;;;12.70;38.90;;;;;;5053037;28;20017;-64
2023/12/08 12:03:07;;;;;;;11.63;10.52;;;12.60;40.20;;;;;;5052917;28;20394;-63
2023/12/08 12:05:35;;;;;;;15.43;13.43;;;12.30;40.00;;;;;;5052290;28;20467;-65
2023/12/08 12:08:01;;;;;;;75.00;62.83;;;12.30;41.10;;;;;;5050601;28;20021;-63
2023/12/08 12:10:34;;;;;;;82.55;68.60;;;12.00;42.50;;;;;;5052190;28;20031;-64
2023/12/08 12:13:06;;;;;;;86.20;75.85;;;11.60;44.30;;;;;;5051351;28;20056;-62
2023/12/08 12:15:33;;;;;;;94.20;80.28;;;11.20;45.10;;;;;;5052515;28;20048;-63
2023/12/08 12:18:01;;;;;;;91.13;74.28;;;10.90;47.30;;;;;;5052404;28;20017;-64
2023/12/08 12:20:30;;;;;;;102.65;79.82;;;10.60;48.10;;;;;;5050957;28;20100;-61
2023/12/08 12:22:56;;;;;;;101.05;76.00;;;10.30;48.30;;;;;;5051976;28;20109;-65
2023/12/08 12:25:22;;;;;;;95.80;69.63;;;10.00;50.30;;;;;;5058693;28;20108;-63
2023/12/08 12:27:49;;;;;;;106.30;78.70;;;9.80;50.80;;;;;;5069665;28;20043;-63
2023/12/08 12:30:16;;;;;;;96.30;68.32;;;9.70;51.30;;;;;;5070540;28;20367;-62
2023/12/08 12:32:44;;;;;;;87.47;66.28;;;9.80;50.50;;;;;;5070477;28;20036;-66
2023/12/08 12:35:10;;;;;;;111.22;81.88;;;9.90;50.60;;;;;;5069277;28;20036;-64
2023/12/08 12:37:36;;;;;;;76.78;54.88;;;9.90;51.90;;;;;;5070302;28;20021;-63
2023/12/08 12:40:07;;;;;;;58.20;40.80;;;10.00;50.80;;;;;;5074235;28;20501;-65
2023/12/08 12:42:53;;;;;;;63.17;44.33;;;9.80;49.70;;;;;;5074789;28;20036;-65
2023/12/08 12:45:30;;;;;;;91.00;62.50;;;9.60;49.90;;;;;;5073852;28;20020;-65
2023/12/08 12:48:04;;;;;;;89.65;64.18;;;9.50;51.50;;;;;;5074371;28;20029;-63
2023/12/08 12:50:30;;;;;;;104.63;72.10;;;9.30;52.80;;;;;;5074910;28;20047;-62
2023/12/08 12:53:05;;;;;;;120.82;86.93;;;9.40;53.40;;;;;;5074252;28;20037;-64
2023/12/08 12:55:31;;;;;;;132.02;97.05;;;9.60;51.60;;;;;;5075565;28;20025;-60
2023/12/08 12:57:57;;;;;;;103.95;73.43;;;9.80;51.50;;;;;;5069726;28;20115;-62
2023/12/08 13:00:40;;;;;;;150.82;105.25;;;9.70;49.90;;;;;;5056022;28;20390;-63
2023/12/08 13:03:06;;;;;;;164.65;122.75;;;9.50;50.20;;;;;;5057107;28;20150;-62
2023/12/08 13:05:32;;;;;;;154.80;120.13;;;9.30;50.80;;;;;;5075907;28;20439;-60
2023/12/08 13:07:58;;;;;;;89.10;64.53;;;9.30;50.60;;;;;;5075396;28;20107;-62
2023/12/08 13:10:24;;;;;;;97.20;69.90;;;9.30;51.20;;;;;;5075757;28;20016;-61
2023/12/08 13:12:50;;;;;;;77.75;57.63;;;9.30;51.60;;;;;;5074829;28;20470;-60
2023/12/08 13:15:17;;;;;;;90.72;71.30;;;9.30;50.60;;;;;;5075609;28;20032;-62
2023/12/08 13:17:43;;;;;;;97.32;74.57;;;9.40;50.70;;;;;;5075692;28;20028;-61
2023/12/08 13:20:09;;;;;;;75.35;55.83;;;9.40;50.50;;;;;;5075531;28;20052;-60
2023/12/08 13:22:35;;;;;;;75.90;54.75;;;9.40;50.30;;;;;;5075399;28;20028;-64
2023/12/08 13:25:01;;;;;;;83.43;60.80;;;9.50;50.90;;;;;;5075576;28;20091;-62
2023/12/08 13:27:26;;;;;;;59.08;46.65;;;9.60;49.90;;;;;;5075478;28;20478;-61
2023/12/08 13:29:52;;;;;;;49.72;40.55;;;9.70;48.10;;;;;;5075445;28;20047;-62
2023/12/08 13:32:19;;;;;;;44.03;37.30;;;9.70;49.40;;;;;;5075534;28;20523;-63
2023/12/08 13:34:44;;;;;;;44.17;36.63;;;9.70;49.70;;;;;;5075065;28;20071;-62
2023/12/08 13:37:10;;;;;;;40.08;33.38;;;9.60;49.90;;;;;;5075177;28;20048;-62
2023/12/08 13:39:36;;;;;;;28.35;25.23;;;9.80;50.70;;;;;;5075318;28;20047;-61
2023/12/08 13:42:04;;;;;;;41.80;34.28;;;10.10;49.60;;;;;;5075225;28;20419;-63
2023/12/08 13:44:29;;;;;;;40.35;34.00;;;10.40;48.50;;;;;;5075225;28;20082;-63
2023/12/08 13:46:55;;;;;;;38.30;32.38;;;10.60;46.90;;;;;;5075112;28;20025;-61
2023/12/08 13:49:22;;;;;;;48.85;40.83;;;10.70;48.70;;;;;;5074918;28;20510;-61
2023/12/08 13:51:48;;;;;;;42.63;38.03;;;10.60;47.20;;;;;;5074916;28;20490;-62
2023/12/08 13:54:14;;;;;;;42.17;37.33;;;10.60;47.40;;;;;;5075239;28;20068;-59
2023/12/08 13:56:39;;;;;;;47.08;39.25;;;10.50;47.10;;;;;;5075321;28;20077;-62
2023/12/08 13:59:05;;;;;;;40.67;36.17;;;10.50;47.90;;;;;;5074956;28;20020;-60
2023/12/08 14:01:31;;;;;;;42.97;36.45;;;10.20;48.00;;;;;;5074677;28;20093;-64
2023/12/08 14:03:56;;;;;;;36.72;32.65;;;10.10;48.30;;;;;;5074044;28;20029;-61
2023/12/08 14:06:22;;;;;;;39.45;34.78;;;10.20;47.60;;;;;;5074830;28;20017;-60
2023/12/08 14:08:51;;;;;;;35.70;32.00;;;10.10;47.20;;;;;;5073413;28;20474;-63
2023/12/08 14:11:20;;;;;;;40.40;34.38;;;10.00;47.30;;;;;;5074653;28;20016;-62
2023/12/08 14:13:46;;;;;;;43.00;34.88;;;9.80;48.70;;;;;;5074681;28;20024;-62
2023/12/08 14:16:12;;;;;;;42.08;33.65;;;9.40;50.60;;;;;;5073180;28;20114;-64
2023/12/08 14:18:37;;;;;;;35.25;28.90;;;9.20;50.80;;;;;;5074481;28;20119;-63
2023/12/08 14:21:05;;;;;;;35.25;29.60;;;9.00;50.60;;;;;;5074536;28;20032;-64
2023/12/08 14:23:31;;;;;;;33.72;28.55;;;9.00;51.00;;;;;;5074342;28;20029;-61
2023/12/08 14:25:57;;;;;;;29.73;25.60;;;8.70;51.70;;;;;;5074563;28;20477;-62
2023/12/08 14:28:22;;;;;;;34.20;28.42;;;8.50;52.40;;;;;;5074615;28;20021;-63
2023/12/08 14:30:48;;;;;;;30.23;23.35;;;8.40;53.70;;;;;;5074290;28;20498;-60
2023/12/08 14:33:14;;;;;;;42.35;34.10;;;8.20;54.10;;;;;;5072611;28;20031;-62
2023/12/08 14:35:40;;;;;;;39.60;32.35;;;8.00;55.60;;;;;;5074307;28;20052;-64
2023/12/08 14:38:06;;;;;;;48.65;37.25;;;7.70;57.70;;;;;;5074130;28;20021;-60
2023/12/08 14:40:32;;;;;;;53.13;41.88;;;7.60;59.00;;;;;;5073995;28;20522;-62
2023/12/08 14:42:58;;;;;;;60.65;45.50;;;7.40;61.80;;;;;;5074064;28;20068;-62
2023/12/08 14:45:23;;;;;;;74.28;50.25;;;7.10;64.10;;;;;;5073932;28;20055;-63
2023/12/08 14:47:49;;;;;;;89.05;63.08;;;6.90;66.90;;;;;;5073741;28;20020;-62
2023/12/08 14:50:15;;;;;;;132.85;96.50;;;6.70;69.60;;;;;;5073909;28;20031;-63
2023/12/08 14:52:40;;;;;;;197.70;142.93;;;6.50;74.20;;;;;;5073749;28;20041;-61
2023/12/08 14:55:06;;;;;;;197.57;149.80;;;6.30;76.70;;;;;;5073788;28;20027;-64
2023/12/08 14:57:32;;;;;;;130.77;102.78;;;6.10;81.20;;;;;;5073798;28;20025;-63
2023/12/08 14:59:58;;;;;;;140.95;112.18;;;5.90;84.40;;;;;;5073745;28;20027;-61
2023/12/08 15:02:24;;;;;;;123.88;102.18;;;5.80;87.40;;;;;;5072931;28;20035;-61
2023/12/08 15:04:49;;;;;;;97.80;77.85;;;5.70;87.70;;;;;;5073578;28;20486;-61
2023/12/08 15:07:15;;;;;;;104.25;87.88;;;5.80;87.50;;;;;;5073672;28;20020;-63
2023/12/08 15:09:41;;;;;;;90.68;80.35;;;5.60;89.90;;;;;;5073622;28;20081;-64
2023/12/08 15:12:07;;;;;;;67.55;56.35;;;5.40;90.60;;;;;;5073442;28;20029;-62
2023/12/08 15:14:33;;;;;;;73.88;62.50;;;5.40;91.20;;;;;;5073560;28;20134;-61
2023/12/08 15:16:59;;;;;;;45.00;39.03;;;5.40;91.20;;;;;;5073455;28;20099;-62
2023/12/08 15:19:24;;;;;;;58.92;47.30;;;5.40;90.50;;;;;;5073382;28;20526;-61
2023/12/08 15:21:50;;;;;;;68.63;52.30;;;5.30;90.60;;;;;;5073503;28;20389;-61
2023/12/08 15:24:16;;;;;;;64.75;51.95;;;5.40;90.40;;;;;;5072146;28;20020;-60
2023/12/08 15:26:42;;;;;;;68.00;53.17;;;5.40;88.20;;;;;;5073342;28;20052;-63
2023/12/08 15:29:08;;;;;;;85.07;66.35;;;5.50;89.00;;;;;;5073476;28;20094;-65
2023/12/08 15:31:35;;;;;;;70.38;57.33;;;5.60;86.90;;;;;;5073120;28;20103;-61
2023/12/08 15:34:01;;;;;;;66.22;53.70;;;5.60;87.80;;;;;;5073285;28;20104;-62
2023/12/08 15:36:27;;;;;;;63.65;52.17;;;5.70;86.90;;;;;;5073214;28;20433;-62
2023/12/08 15:38:53;;;;;;;67.63;53.30;;;5.70;87.30;;;;;;5073231;28;20025;-64
2023/12/08 15:41:20;;;;;;;74.50;60.80;;;5.70;86.50;;;;;;5071924;28;20035;-62